sensor_id;sensor_type;location;lat;lon;timestamp;temperature;humidity
18177;DHT22;9213;50.858;3.964;2023-07-29T00:02:13;23.10;53.60
18177;DHT22;9213;50.858;3.964;2023-07-29T00:04:40;23.10;53.80
18177;DHT22;9213;50.858;3.964;2023-07-29T00:07:07;23.10;53.80
18177;DHT22;9213;50.858;3.964;2023-07-29T00:09:35;23.10;53.90
18177;DHT22;9213;50.858;3.964;2023-07-29T00:12:04;23.10;54.10
18177;DHT22;9213;50.858;3.964;2023-07-29T00:14:31;23.10;54.10
18177;DHT22;9213;50.858;3.964;2023-07-29T00:16:58;23.00;54.00
18177;DHT22;9213;50.858;3.964;2023-07-29T00:19:25;23.00;54.00
18177;DHT22;9213;50.858;3.964;2023-07-29T00:21:53;23.00;54.10
18177;DHT22;9213;50.858;3.964;2023-07-29T00:24:20;23.00;54.10
18177;DHT22;9213;50.858;3.964;2023-07-29T00:26:49;23.00;54.40
18177;DHT22;9213;50.858;3.964;2023-07-29T00:29:16;23.00;54.50
18177;DHT22;9213;50.858;3.964;2023-07-29T00:31:42;23.00;54.40
18177;DHT22;9213;50.858;3.964;2023-07-29T00:34:09;22.90;54.40
18177;DHT22;9213;50.858;3.964;2023-07-29T00:36:36;22.90;54.40
18177;DHT22;9213;50.858;3.964;2023-07-29T00:39:03;22.80;54.50
18177;DHT22;9213;50.858;3.964;2023-07-29T00:41:30;22.80;54.60
18177;DHT22;9213;50.858;3.964;2023-07-29T00:43:58;22.80;54.70
18177;DHT22;9213;50.858;3.964;2023-07-29T00:46:28;22.80;54.80
18177;DHT22;9213;50.858;3.964;2023-07-29T00:48:55;22.80;54.90
18177;DHT22;9213;50.858;3.964;2023-07-29T00:51:22;22.70;55.00
18177;DHT22;9213;50.858;3.964;2023-07-29T00:53:49;22.70;55.10
18177;DHT22;9213;50.858;3.964;2023-07-29T00:56:16;22.70;55.20
18177;DHT22;9213;50.858;3.964;2023-07-29T00:58:43;22.60;55.30
18177;DHT22;9213;50.858;3.964;2023-07-29T01:01:12;22.60;55.50
18177;DHT22;9213;50.858;3.964;2023-07-29T01:03:39;22.60;55.30
18177;DHT22;9213;50.858;3.964;2023-07-29T01:06:13;22.60;55.30
18177;DHT22;9213;50.858;3.964;2023-07-29T01:08:50;22.60;55.50
18177;DHT22;9213;50.858;3.964;2023-07-29T01:11:27;22.60;55.60
18177;DHT22;9213;50.858;3.964;2023-07-29T01:14:01;22.60;55.70
18177;DHT22;9213;50.858;3.964;2023-07-29T01:16:37;22.60;55.70
18177;DHT22;9213;50.858;3.964;2023-07-29T01:19:06;22.50;55.70
18177;DHT22;9213;50.858;3.964;2023-07-29T01:21:35;22.60;55.70
18177;DHT22;9213;50.858;3.964;2023-07-29T01:24:04;22.50;55.70
18177;DHT22;9213;50.858;3.964;2023-07-29T01:26:31;22.50;55.70
18177;DHT22;9213;50.858;3.964;2023-07-29T01:28:58;22.50;55.60
18177;DHT22;9213;50.858;3.964;2023-07-29T01:31:32;22.50;55.60
18177;DHT22;9213;50.858;3.964;2023-07-29T01:34:06;22.50;55.60
18177;DHT22;9213;50.858;3.964;2023-07-29T01:36:36;22.50;55.60
18177;DHT22;9213;50.858;3.964;2023-07-29T01:39:07;22.40;55.60
18177;DHT22;9213;50.858;3.964;2023-07-29T01:41:34;22.40;55.80
18177;DHT22;9213;50.858;3.964;2023-07-29T01:44:02;22.40;55.80
18177;DHT22;9213;50.858;3.964;2023-07-29T01:46:32;22.40;56.00
18177;DHT22;9213;50.858;3.964;2023-07-29T01:48:59;22.40;56.20
18177;DHT22;9213;50.858;3.964;2023-07-29T01:51:26;22.30;56.20
18177;DHT22;9213;50.858;3.964;2023-07-29T01:53:53;22.30;56.40
18177;DHT22;9213;50.858;3.964;2023-07-29T01:56:22;22.30;56.60
18177;DHT22;9213;50.858;3.964;2023-07-29T01:58:49;22.20;56.60
18177;DHT22;9213;50.858;3.964;2023-07-29T02:01:16;22.20;56.60
18177;DHT22;9213;50.858;3.964;2023-07-29T02:03:43;22.20;56.60
18177;DHT22;9213;50.858;3.964;2023-07-29T02:06:10;22.20;56.60
18177;DHT22;9213;50.858;3.964;2023-07-29T02:08:37;22.20;56.60
18177;DHT22;9213;50.858;3.964;2023-07-29T02:11:06;22.20;56.80
18177;DHT22;9213;50.858;3.964;2023-07-29T02:13:34;22.10;56.80
18177;DHT22;9213;50.858;3.964;2023-07-29T02:16:01;22.10;56.90
18177;DHT22;9213;50.858;3.964;2023-07-29T02:18:28;22.10;56.90
18177;DHT22;9213;50.858;3.964;2023-07-29T02:20:55;22.10;57.00
18177;DHT22;9213;50.858;3.964;2023-07-29T02:23:22;22.00;56.90
18177;DHT22;9213;50.858;3.964;2023-07-29T02:25:50;22.00;57.00
18177;DHT22;9213;50.858;3.964;2023-07-29T02:28:17;22.00;57.00
18177;DHT22;9213;50.858;3.964;2023-07-29T02:30:45;21.90;57.00
18177;DHT22;9213;50.858;3.964;2023-07-29T02:33:15;21.90;57.10
18177;DHT22;9213;50.858;3.964;2023-07-29T02:35:42;21.90;57.10
18177;DHT22;9213;50.858;3.964;2023-07-29T02:38:08;21.90;57.10
18177;DHT22;9213;50.858;3.964;2023-07-29T02:40:35;21.90;57.20
18177;DHT22;9213;50.858;3.964;2023-07-29T02:43:02;21.90;57.00
18177;DHT22;9213;50.858;3.964;2023-07-29T02:45:29;21.80;57.00
18177;DHT22;9213;50.858;3.964;2023-07-29T02:47:57;21.80;57.10
18177;DHT22;9213;50.858;3.964;2023-07-29T02:50:24;21.80;57.20
18177;DHT22;9213;50.858;3.964;2023-07-29T02:52:51;21.80;56.90
18177;DHT22;9213;50.858;3.964;2023-07-29T02:55:18;21.90;57.00
18177;DHT22;9213;50.858;3.964;2023-07-29T02:57:45;21.80;56.90
18177;DHT22;9213;50.858;3.964;2023-07-29T03:00:13;21.90;57.10
18177;DHT22;9213;50.858;3.964;2023-07-29T03:02:40;21.80;56.90
18177;DHT22;9213;50.858;3.964;2023-07-29T03:05:09;21.80;56.80
18177;DHT22;9213;50.858;3.964;2023-07-29T03:07:36;21.80;56.90
18177;DHT22;9213;50.858;3.964;2023-07-29T03:10:03;21.80;56.90
18177;DHT22;9213;50.858;3.964;2023-07-29T03:12:31;21.70;57.10
18177;DHT22;9213;50.858;3.964;2023-07-29T03:14:58;21.70;57.30
18177;DHT22;9213;50.858;3.964;2023-07-29T03:17:25;21.70;57.20
18177;DHT22;9213;50.858;3.964;2023-07-29T03:19:53;21.60;57.10
18177;DHT22;9213;50.858;3.964;2023-07-29T03:22:22;21.60;57.20
18177;DHT22;9213;50.858;3.964;2023-07-29T03:24:48;21.60;57.40
18177;DHT22;9213;50.858;3.964;2023-07-29T03:27:15;21.60;57.30
18177;DHT22;9213;50.858;3.964;2023-07-29T03:29:42;21.60;57.30
18177;DHT22;9213;50.858;3.964;2023-07-29T03:32:10;21.60;57.30
18177;DHT22;9213;50.858;3.964;2023-07-29T03:34:37;21.60;57.40
18177;DHT22;9213;50.858;3.964;2023-07-29T03:37:06;21.50;57.50
18177;DHT22;9213;50.858;3.964;2023-07-29T03:39:34;21.50;57.50
18177;DHT22;9213;50.858;3.964;2023-07-29T03:42:01;21.50;57.60
18177;DHT22;9213;50.858;3.964;2023-07-29T03:44:28;21.50;57.60
18177;DHT22;9213;50.858;3.964;2023-07-29T03:46:56;21.40;57.60
18177;DHT22;9213;50.858;3.964;2023-07-29T03:49:23;21.40;57.60
18177;DHT22;9213;50.858;3.964;2023-07-29T03:51:50;21.40;57.70
18177;DHT22;9213;50.858;3.964;2023-07-29T03:54:17;21.40;57.70
18177;DHT22;9213;50.858;3.964;2023-07-29T03:56:45;21.40;57.90
18177;DHT22;9213;50.858;3.964;2023-07-29T03:59:12;21.40;57.90
18177;DHT22;9213;50.858;3.964;2023-07-29T04:01:39;21.40;57.90
18177;DHT22;9213;50.858;3.964;2023-07-29T04:04:06;21.40;58.10
18177;DHT22;9213;50.858;3.964;2023-07-29T04:06:33;21.30;58.30
18177;DHT22;9213;50.858;3.964;2023-07-29T04:09:00;21.40;58.40
18177;DHT22;9213;50.858;3.964;2023-07-29T04:11:27;21.40;58.50
18177;DHT22;9213;50.858;3.964;2023-07-29T04:13:55;21.40;58.50
18177;DHT22;9213;50.858;3.964;2023-07-29T04:16:22;21.40;58.60
18177;DHT22;9213;50.858;3.964;2023-07-29T04:18:49;21.40;58.60
18177;DHT22;9213;50.858;3.964;2023-07-29T04:21:16;21.40;58.50
18177;DHT22;9213;50.858;3.964;2023-07-29T04:23:43;21.40;58.50
18177;DHT22;9213;50.858;3.964;2023-07-29T04:26:10;21.40;58.60
18177;DHT22;9213;50.858;3.964;2023-07-29T04:28:36;21.40;58.50
18177;DHT22;9213;50.858;3.964;2023-07-29T04:31:05;21.40;58.60
18177;DHT22;9213;50.858;3.964;2023-07-29T04:33:32;21.50;58.60
18177;DHT22;9213;50.858;3.964;2023-07-29T04:35:59;21.50;58.50
18177;DHT22;9213;50.858;3.964;2023-07-29T04:38:32;21.40;58.40
18177;DHT22;9213;50.858;3.964;2023-07-29T04:40:59;21.50;58.70
18177;DHT22;9213;50.858;3.964;2023-07-29T04:43:27;21.40;58.50
18177;DHT22;9213;50.858;3.964;2023-07-29T04:45:54;21.40;58.50
18177;DHT22;9213;50.858;3.964;2023-07-29T04:48:23;21.40;58.50
18177;DHT22;9213;50.858;3.964;2023-07-29T04:50:49;21.40;58.50
18177;DHT22;9213;50.858;3.964;2023-07-29T04:53:16;21.40;58.70
18177;DHT22;9213;50.858;3.964;2023-07-29T04:55:43;21.40;58.70
18177;DHT22;9213;50.858;3.964;2023-07-29T04:58:10;21.40;58.70
18177;DHT22;9213;50.858;3.964;2023-07-29T05:00:37;21.40;58.70
18177;DHT22;9213;50.858;3.964;2023-07-29T05:03:04;21.40;58.70
18177;DHT22;9213;50.858;3.964;2023-07-29T05:05:33;21.40;58.70
18177;DHT22;9213;50.858;3.964;2023-07-29T05:08:00;21.40;58.70
18177;DHT22;9213;50.858;3.964;2023-07-29T05:10:27;21.40;59.30
18177;DHT22;9213;50.858;3.964;2023-07-29T05:12:54;21.40;58.50
18177;DHT22;9213;50.858;3.964;2023-07-29T05:15:21;21.40;58.50
18177;DHT22;9213;50.858;3.964;2023-07-29T05:17:48;21.40;58.50
18177;DHT22;9213;50.858;3.964;2023-07-29T05:20:14;21.50;58.60
18177;DHT22;9213;50.858;3.964;2023-07-29T05:22:43;21.50;58.40
18177;DHT22;9213;50.858;3.964;2023-07-29T05:25:10;21.60;58.30
18177;DHT22;9213;50.858;3.964;2023-07-29T05:27:37;21.60;58.30
18177;DHT22;9213;50.858;3.964;2023-07-29T05:30:04;21.70;58.60
18177;DHT22;9213;50.858;3.964;2023-07-29T05:32:32;21.80;58.40
18177;DHT22;9213;50.858;3.964;2023-07-29T05:34:59;22.00;58.00
18177;DHT22;9213;50.858;3.964;2023-07-29T05:37:26;22.10;57.80
18177;DHT22;9213;50.858;3.964;2023-07-29T05:39:54;22.20;57.40
18177;DHT22;9213;50.858;3.964;2023-07-29T05:42:21;22.30;57.20
18177;DHT22;9213;50.858;3.964;2023-07-29T05:44:48;22.50;56.80
18177;DHT22;9213;50.858;3.964;2023-07-29T05:47:14;22.70;56.30
18177;DHT22;9213;50.858;3.964;2023-07-29T05:49:41;22.80;55.80
18177;DHT22;9213;50.858;3.964;2023-07-29T05:52:08;23.00;55.40
18177;DHT22;9213;50.858;3.964;2023-07-29T05:54:35;23.00;55.30
18177;DHT22;9213;50.858;3.964;2023-07-29T05:57:04;23.10;55.20
18177;DHT22;9213;50.858;3.964;2023-07-29T05:59:31;23.20;54.90
18177;DHT22;9213;50.858;3.964;2023-07-29T06:01:58;23.20;55.50
18177;DHT22;9213;50.858;3.964;2023-07-29T06:04:24;23.30;54.80
18177;DHT22;9213;50.858;3.964;2023-07-29T06:06:51;23.50;54.60
18177;DHT22;9213;50.858;3.964;2023-07-29T06:09:18;23.70;54.40
18177;DHT22;9213;50.858;3.964;2023-07-29T06:11:45;23.90;53.70
18177;DHT22;9213;50.858;3.964;2023-07-29T06:14:13;24.10;53.30
18177;DHT22;9213;50.858;3.964;2023-07-29T06:16:40;24.20;52.60
18177;DHT22;9213;50.858;3.964;2023-07-29T06:19:07;24.30;52.20
18177;DHT22;9213;50.858;3.964;2023-07-29T06:21:34;24.40;51.60
18177;DHT22;9213;50.858;3.964;2023-07-29T06:24:01;24.40;51.20
18177;DHT22;9213;50.858;3.964;2023-07-29T06:26:28;24.50;51.20
18177;DHT22;9213;50.858;3.964;2023-07-29T06:28:55;24.50;51.30
18177;DHT22;9213;50.858;3.964;2023-07-29T06:31:24;24.60;51.00
18177;DHT22;9213;50.858;3.964;2023-07-29T06:33:51;24.60;50.60
18177;DHT22;9213;50.858;3.964;2023-07-29T06:36:17;24.70;50.50
18177;DHT22;9213;50.858;3.964;2023-07-29T06:38:44;24.80;50.10
18177;DHT22;9213;50.858;3.964;2023-07-29T06:41:11;24.90;49.90
18177;DHT22;9213;50.858;3.964;2023-07-29T06:43:38;24.90;49.70
18177;DHT22;9213;50.858;3.964;2023-07-29T06:46:05;24.90;49.70
18177;DHT22;9213;50.858;3.964;2023-07-29T06:48:33;24.90;50.00
18177;DHT22;9213;50.858;3.964;2023-07-29T06:51:00;24.80;50.40
18177;DHT22;9213;50.858;3.964;2023-07-29T06:53:28;24.80;50.40
18177;DHT22;9213;50.858;3.964;2023-07-29T06:55:55;24.90;50.20
18177;DHT22;9213;50.858;3.964;2023-07-29T06:58:22;24.90;50.10
18177;DHT22;9213;50.858;3.964;2023-07-29T07:00:49;24.80;50.20
18177;DHT22;9213;50.858;3.964;2023-07-29T07:03:16;24.70;50.30
18177;DHT22;9213;50.858;3.964;2023-07-29T07:05:44;24.60;50.50
18177;DHT22;9213;50.858;3.964;2023-07-29T07:08:11;24.50;50.90
18177;DHT22;9213;50.858;3.964;2023-07-29T07:10:38;24.40;51.20
18177;DHT22;9213;50.858;3.964;2023-07-29T07:13:05;24.40;51.80
18177;DHT22;9213;50.858;3.964;2023-07-29T07:15:32;24.40;51.90
18177;DHT22;9213;50.858;3.964;2023-07-29T07:17:58;24.50;51.90
18177;DHT22;9213;50.858;3.964;2023-07-29T07:20:25;24.60;51.60
18177;DHT22;9213;50.858;3.964;2023-07-29T07:22:54;24.70;51.70
18177;DHT22;9213;50.858;3.964;2023-07-29T07:25:21;24.70;51.50
18177;DHT22;9213;50.858;3.964;2023-07-29T07:27:48;24.90;51.30
18177;DHT22;9213;50.858;3.964;2023-07-29T07:30:15;25.00;50.80
18177;DHT22;9213;50.858;3.964;2023-07-29T07:32:42;25.20;50.50
18177;DHT22;9213;50.858;3.964;2023-07-29T07:35:09;25.50;50.30
18177;DHT22;9213;50.858;3.964;2023-07-29T07:37:35;26.30;50.60
18177;DHT22;9213;50.858;3.964;2023-07-29T07:40:05;27.80;47.80
18177;DHT22;9213;50.858;3.964;2023-07-29T07:42:32;29.30;42.30
18177;DHT22;9213;50.858;3.964;2023-07-29T07:44:59;30.20;39.10
18177;DHT22;9213;50.858;3.964;2023-07-29T07:47:25;30.60;37.90
18177;DHT22;9213;50.858;3.964;2023-07-29T07:49:52;30.60;37.20
18177;DHT22;9213;50.858;3.964;2023-07-29T07:52:19;30.50;37.00
18177;DHT22;9213;50.858;3.964;2023-07-29T07:54:51;30.20;37.60
18177;DHT22;9213;50.858;3.964;2023-07-29T07:57:20;30.10;38.40
18177;DHT22;9213;50.858;3.964;2023-07-29T07:59:47;30.20;38.70
18177;DHT22;9213;50.858;3.964;2023-07-29T08:02:14;30.90;38.00
18177;DHT22;9213;50.858;3.964;2023-07-29T08:04:41;31.90;35.80
18177;DHT22;9213;50.858;3.964;2023-07-29T08:07:08;32.90;34.10
18177;DHT22;9213;50.858;3.964;2023-07-29T08:09:34;33.40;33.00
18177;DHT22;9213;50.858;3.964;2023-07-29T08:12:02;33.60;31.70
18177;DHT22;9213;50.858;3.964;2023-07-29T08:14:30;33.70;31.60
18177;DHT22;9213;50.858;3.964;2023-07-29T08:16:57;33.80;31.50
18177;DHT22;9213;50.858;3.964;2023-07-29T08:19:24;33.90;31.10
18177;DHT22;9213;50.858;3.964;2023-07-29T08:21:51;34.20;30.60
18177;DHT22;9213;50.858;3.964;2023-07-29T08:24:17;34.30;30.50
18177;DHT22;9213;50.858;3.964;2023-07-29T08:26:44;34.40;30.80
18177;DHT22;9213;50.858;3.964;2023-07-29T08:29:12;34.70;30.30
18177;DHT22;9213;50.858;3.964;2023-07-29T08:31:40;35.10;30.20
18177;DHT22;9213;50.858;3.964;2023-07-29T08:34:07;35.60;28.60
18177;DHT22;9213;50.858;3.964;2023-07-29T08:36:34;36.10;28.50
18177;DHT22;9213;50.858;3.964;2023-07-29T08:39:01;36.60;27.20
18177;DHT22;9213;50.858;3.964;2023-07-29T08:41:32;37.00;26.70
18177;DHT22;9213;50.858;3.964;2023-07-29T08:44:06;37.10;26.10
18177;DHT22;9213;50.858;3.964;2023-07-29T08:46:35;37.10;26.40
18177;DHT22;9213;50.858;3.964;2023-07-29T08:49:05;36.90;25.90
18177;DHT22;9213;50.858;3.964;2023-07-29T08:51:33;36.60;26.10
18177;DHT22;9213;50.858;3.964;2023-07-29T08:54:00;36.40;26.10
18177;DHT22;9213;50.858;3.964;2023-07-29T08:56:28;36.00;26.70
18177;DHT22;9213;50.858;3.964;2023-07-29T08:58:56;35.50;27.30
18177;DHT22;9213;50.858;3.964;2023-07-29T09:01:23;35.00;28.60
18177;DHT22;9213;50.858;3.964;2023-07-29T09:03:50;34.50;29.10
18177;DHT22;9213;50.858;3.964;2023-07-29T09:06:19;34.10;29.80
18177;DHT22;9213;50.858;3.964;2023-07-29T09:08:49;33.70;30.00
18177;DHT22;9213;50.858;3.964;2023-07-29T09:11:17;33.20;30.80
18177;DHT22;9213;50.858;3.964;2023-07-29T09:13:44;32.60;31.40
18177;DHT22;9213;50.858;3.964;2023-07-29T09:16:12;32.20;32.20
18177;DHT22;9213;50.858;3.964;2023-07-29T09:18:39;31.80;32.60
18177;DHT22;9213;50.858;3.964;2023-07-29T09:21:06;31.40;33.50
18177;DHT22;9213;50.858;3.964;2023-07-29T09:23:40;31.10;34.60
18177;DHT22;9213;50.858;3.964;2023-07-29T09:26:07;30.70;34.80
18177;DHT22;9213;50.858;3.964;2023-07-29T09:28:36;30.40;35.40
18177;DHT22;9213;50.858;3.964;2023-07-29T09:31:03;30.20;36.20
18177;DHT22;9213;50.858;3.964;2023-07-29T09:33:32;30.00;36.90
18177;DHT22;9213;50.858;3.964;2023-07-29T09:36:01;30.00;37.30
18177;DHT22;9213;50.858;3.964;2023-07-29T09:38:28;30.10;37.20
18177;DHT22;9213;50.858;3.964;2023-07-29T09:40:57;30.20;37.50
18177;DHT22;9213;50.858;3.964;2023-07-29T09:43:26;30.20;37.30
18177;DHT22;9213;50.858;3.964;2023-07-29T09:45:55;30.10;37.70
18177;DHT22;9213;50.858;3.964;2023-07-29T09:48:26;30.00;38.00
18177;DHT22;9213;50.858;3.964;2023-07-29T09:50:54;29.80;38.60
18177;DHT22;9213;50.858;3.964;2023-07-29T09:53:21;29.60;40.10
18177;DHT22;9213;50.858;3.964;2023-07-29T09:55:48;29.50;40.20
18177;DHT22;9213;50.858;3.964;2023-07-29T09:58:19;29.50;41.50
18177;DHT22;9213;50.858;3.964;2023-07-29T10:00:52;29.50;41.30
18177;DHT22;9213;50.858;3.964;2023-07-29T10:03:19;29.60;40.50
18177;DHT22;9213;50.858;3.964;2023-07-29T10:05:47;29.60;40.70
18177;DHT22;9213;50.858;3.964;2023-07-29T10:08:14;29.60;40.30
18177;DHT22;9213;50.858;3.964;2023-07-29T10:10:42;29.50;41.00
18177;DHT22;9213;50.858;3.964;2023-07-29T10:13:09;29.40;41.30
18177;DHT22;9213;50.858;3.964;2023-07-29T10:15:38;29.30;42.10
18177;DHT22;9213;50.858;3.964;2023-07-29T10:18:06;29.20;43.00
18177;DHT22;9213;50.858;3.964;2023-07-29T10:20:34;29.10;42.90
18177;DHT22;9213;50.858;3.964;2023-07-29T10:23:05;29.10;42.90
18177;DHT22;9213;50.858;3.964;2023-07-29T10:25:38;29.10;43.20
18177;DHT22;9213;50.858;3.964;2023-07-29T10:28:07;29.20;42.80
18177;DHT22;9213;50.858;3.964;2023-07-29T10:30:34;29.30;42.40
18177;DHT22;9213;50.858;3.964;2023-07-29T10:33:04;29.50;42.80
18177;DHT22;9213;50.858;3.964;2023-07-29T10:35:32;29.80;40.50
18177;DHT22;9213;50.858;3.964;2023-07-29T10:38:00;30.20;40.70
18177;DHT22;9213;50.858;3.964;2023-07-29T10:40:44;30.50;39.30
18177;DHT22;9213;50.858;3.964;2023-07-29T10:43:12;31.00;38.70
18177;DHT22;9213;50.858;3.964;2023-07-29T10:45:41;31.20;37.70
18177;DHT22;9213;50.858;3.964;2023-07-29T10:48:12;31.30;36.40
18177;DHT22;9213;50.858;3.964;2023-07-29T10:50:40;31.20;35.40
18177;DHT22;9213;50.858;3.964;2023-07-29T10:53:07;30.90;34.90
18177;DHT22;9213;50.858;3.964;2023-07-29T10:55:35;30.60;35.60
18177;DHT22;9213;50.858;3.964;2023-07-29T10:58:08;30.30;36.30
18177;DHT22;9213;50.858;3.964;2023-07-29T11:00:35;29.90;36.80
18177;DHT22;9213;50.858;3.964;2023-07-29T11:03:05;29.50;37.90
18177;DHT22;9213;50.858;3.964;2023-07-29T11:05:48;29.30;38.40
18177;DHT22;9213;50.858;3.964;2023-07-29T11:08:20;29.30;39.10
18177;DHT22;9213;50.858;3.964;2023-07-29T11:11:02;29.10;39.20
18177;DHT22;9213;50.858;3.964;2023-07-29T11:13:29;29.10;39.60
18177;DHT22;9213;50.858;3.964;2023-07-29T11:15:58;29.10;40.30
18177;DHT22;9213;50.858;3.964;2023-07-29T11:18:27;29.30;41.10
18177;DHT22;9213;50.858;3.964;2023-07-29T11:20:57;29.40;41.30
18177;DHT22;9213;50.858;3.964;2023-07-29T11:23:31;29.30;41.10
18177;DHT22;9213;50.858;3.964;2023-07-29T11:25:59;29.30;41.70
18177;DHT22;9213;50.858;3.964;2023-07-29T11:28:27;28.80;41.60
18177;DHT22;9213;50.858;3.964;2023-07-29T11:30:55;28.40;43.70
18177;DHT22;9213;50.858;3.964;2023-07-29T11:33:24;28.00;45.10
18177;DHT22;9213;50.858;3.964;2023-07-29T11:35:53;27.70;46.10
18177;DHT22;9213;50.858;3.964;2023-07-29T11:38:22;27.50;46.90
18177;DHT22;9213;50.858;3.964;2023-07-29T11:40:58;27.60;47.50
18177;DHT22;9213;50.858;3.964;2023-07-29T11:43:25;27.80;48.40
18177;DHT22;9213;50.858;3.964;2023-07-29T11:45:53;28.00;48.20
18177;DHT22;9213;50.858;3.964;2023-07-29T11:48:27;28.20;48.50
18177;DHT22;9213;50.858;3.964;2023-07-29T11:50:54;28.50;47.90
18177;DHT22;9213;50.858;3.964;2023-07-29T11:53:25;28.70;46.20
18177;DHT22;9213;50.858;3.964;2023-07-29T11:55:52;28.90;46.80
18177;DHT22;9213;50.858;3.964;2023-07-29T11:58:20;29.10;44.70
18177;DHT22;9213;50.858;3.964;2023-07-29T12:00:47;29.20;44.70
18177;DHT22;9213;50.858;3.964;2023-07-29T12:03:15;29.30;44.80
18177;DHT22;9213;50.858;3.964;2023-07-29T12:05:43;29.40;44.00
18177;DHT22;9213;50.858;3.964;2023-07-29T12:08:10;29.60;43.80
18177;DHT22;9213;50.858;3.964;2023-07-29T12:10:39;29.70;42.60
18177;DHT22;9213;50.858;3.964;2023-07-29T12:13:08;29.70;41.60
18177;DHT22;9213;50.858;3.964;2023-07-29T12:15:35;29.60;41.70
18177;DHT22;9213;50.858;3.964;2023-07-29T12:18:04;29.60;41.50
18177;DHT22;9213;50.858;3.964;2023-07-29T12:20:31;29.70;41.40
18177;DHT22;9213;50.858;3.964;2023-07-29T12:22:59;29.70;41.20
18177;DHT22;9213;50.858;3.964;2023-07-29T12:25:28;29.90;41.80
18177;DHT22;9213;50.858;3.964;2023-07-29T12:28:02;30.10;41.30
18177;DHT22;9213;50.858;3.964;2023-07-29T12:30:29;30.40;40.00
18177;DHT22;9213;50.858;3.964;2023-07-29T12:32:56;30.60;39.70
18177;DHT22;9213;50.858;3.964;2023-07-29T12:35:23;30.80;38.10
18177;DHT22;9213;50.858;3.964;2023-07-29T12:37:58;30.90;37.70
18177;DHT22;9213;50.858;3.964;2023-07-29T12:40:26;31.00;37.30
18177;DHT22;9213;50.858;3.964;2023-07-29T12:42:53;31.00;36.80
18177;DHT22;9213;50.858;3.964;2023-07-29T12:45:22;31.00;36.60
18177;DHT22;9213;50.858;3.964;2023-07-29T12:47:52;31.00;36.40
18177;DHT22;9213;50.858;3.964;2023-07-29T12:50:19;31.10;36.20
18177;DHT22;9213;50.858;3.964;2023-07-29T12:52:46;31.10;36.50
18177;DHT22;9213;50.858;3.964;2023-07-29T12:55:13;31.30;36.10
18177;DHT22;9213;50.858;3.964;2023-07-29T12:57:41;31.40;35.60
18177;DHT22;9213;50.858;3.964;2023-07-29T13:00:10;31.40;35.20
18177;DHT22;9213;50.858;3.964;2023-07-29T13:02:38;31.40;35.10
18177;DHT22;9213;50.858;3.964;2023-07-29T13:05:09;31.40;35.50
18177;DHT22;9213;50.858;3.964;2023-07-29T13:07:37;31.30;35.80
18177;DHT22;9213;50.858;3.964;2023-07-29T13:10:04;31.30;36.10
18177;DHT22;9213;50.858;3.964;2023-07-29T13:12:32;31.30;36.40
18177;DHT22;9213;50.858;3.964;2023-07-29T13:14:59;31.30;36.20
18177;DHT22;9213;50.858;3.964;2023-07-29T13:17:26;31.20;36.50
18177;DHT22;9213;50.858;3.964;2023-07-29T13:19:54;31.20;36.50
18177;DHT22;9213;50.858;3.964;2023-07-29T13:22:21;31.10;37.20
18177;DHT22;9213;50.858;3.964;2023-07-29T13:24:48;30.90;37.20
18177;DHT22;9213;50.858;3.964;2023-07-29T13:27:14;30.90;37.50
18177;DHT22;9213;50.858;3.964;2023-07-29T13:29:41;30.90;37.40
18177;DHT22;9213;50.858;3.964;2023-07-29T13:32:09;30.90;37.00
18177;DHT22;9213;50.858;3.964;2023-07-29T13:34:36;31.00;37.30
18177;DHT22;9213;50.858;3.964;2023-07-29T13:37:07;31.10;37.10
18177;DHT22;9213;50.858;3.964;2023-07-29T13:39:34;31.10;36.30
18177;DHT22;9213;50.858;3.964;2023-07-29T13:42:00;31.10;36.40
18177;DHT22;9213;50.858;3.964;2023-07-29T13:44:27;31.10;36.10
18177;DHT22;9213;50.858;3.964;2023-07-29T13:46:54;31.10;35.90
18177;DHT22;9213;50.858;3.964;2023-07-29T13:49:21;31.00;36.30
18177;DHT22;9213;50.858;3.964;2023-07-29T13:51:48;31.00;36.90
18177;DHT22;9213;50.858;3.964;2023-07-29T13:54:16;31.10;36.70
18177;DHT22;9213;50.858;3.964;2023-07-29T13:56:43;31.10;37.00
18177;DHT22;9213;50.858;3.964;2023-07-29T13:59:10;31.20;36.20
18177;DHT22;9213;50.858;3.964;2023-07-29T14:01:37;31.30;35.70
18177;DHT22;9213;50.858;3.964;2023-07-29T14:04:04;31.30;35.40
18177;DHT22;9213;50.858;3.964;2023-07-29T14:06:32;31.30;35.50
18177;DHT22;9213;50.858;3.964;2023-07-29T14:08:59;31.30;36.10
18177;DHT22;9213;50.858;3.964;2023-07-29T14:11:27;31.50;36.20
18177;DHT22;9213;50.858;3.964;2023-07-29T14:13:54;31.60;35.80
18177;DHT22;9213;50.858;3.964;2023-07-29T14:16:21;31.50;35.60
18177;DHT22;9213;50.858;3.964;2023-07-29T14:18:48;31.40;35.70
18177;DHT22;9213;50.858;3.964;2023-07-29T14:21:14;31.30;36.50
18177;DHT22;9213;50.858;3.964;2023-07-29T14:23:41;31.20;37.00
18177;DHT22;9213;50.858;3.964;2023-07-29T14:26:08;31.00;37.30
18177;DHT22;9213;50.858;3.964;2023-07-29T14:28:37;30.70;38.20
18177;DHT22;9213;50.858;3.964;2023-07-29T14:31:04;30.30;39.20
18177;DHT22;9213;50.858;3.964;2023-07-29T14:33:31;29.80;39.90
18177;DHT22;9213;50.858;3.964;2023-07-29T14:35:58;29.30;41.70
18177;DHT22;9213;50.858;3.964;2023-07-29T14:38:25;29.00;42.80
18177;DHT22;9213;50.858;3.964;2023-07-29T14:40:52;28.70;43.50
18177;DHT22;9213;50.858;3.964;2023-07-29T14:43:20;28.40;44.20
18177;DHT22;9213;50.858;3.964;2023-07-29T14:45:49;28.30;45.00
18177;DHT22;9213;50.858;3.964;2023-07-29T14:48:16;28.10;45.90
18177;DHT22;9213;50.858;3.964;2023-07-29T14:50:43;28.10;46.60
18177;DHT22;9213;50.858;3.964;2023-07-29T14:53:10;28.00;47.10
18177;DHT22;9213;50.858;3.964;2023-07-29T14:55:37;28.00;47.30
18177;DHT22;9213;50.858;3.964;2023-07-29T14:58:04;28.00;47.50
18177;DHT22;9213;50.858;3.964;2023-07-29T15:00:31;28.10;47.60
18177;DHT22;9213;50.858;3.964;2023-07-29T15:03:00;28.10;47.10
18177;DHT22;9213;50.858;3.964;2023-07-29T15:05:27;28.00;47.20
18177;DHT22;9213;50.858;3.964;2023-07-29T15:07:54;27.90;47.00
18177;DHT22;9213;50.858;3.964;2023-07-29T15:10:21;27.80;47.40
18177;DHT22;9213;50.858;3.964;2023-07-29T15:12:47;27.80;47.70
18177;DHT22;9213;50.858;3.964;2023-07-29T15:15:14;27.80;48.50
18177;DHT22;9213;50.858;3.964;2023-07-29T15:17:41;27.90;48.80
18177;DHT22;9213;50.858;3.964;2023-07-29T15:20:11;28.00;48.70
18177;DHT22;9213;50.858;3.964;2023-07-29T15:22:38;28.20;48.50
18177;DHT22;9213;50.858;3.964;2023-07-29T15:25:05;28.20;48.10
18177;DHT22;9213;50.858;3.964;2023-07-29T15:27:32;28.30;47.90
18177;DHT22;9213;50.858;3.964;2023-07-29T15:29:59;28.40;48.20
18177;DHT22;9213;50.858;3.964;2023-07-29T15:32:25;28.50;46.80
18177;DHT22;9213;50.858;3.964;2023-07-29T15:34:53;28.60;46.80
18177;DHT22;9213;50.858;3.964;2023-07-29T15:37:21;28.70;45.60
18177;DHT22;9213;50.858;3.964;2023-07-29T15:39:48;28.80;44.30
18177;DHT22;9213;50.858;3.964;2023-07-29T15:42:15;28.90;43.10
18177;DHT22;9213;50.858;3.964;2023-07-29T15:44:42;28.90;42.50
18177;DHT22;9213;50.858;3.964;2023-07-29T15:47:09;28.90;42.70
18177;DHT22;9213;50.858;3.964;2023-07-29T15:49:38;29.00;42.90